Time;durP1;ratioP1;P1;durP2;ratioP2;P2;SDS_P1;SDS_P2;PMS_P1;PMS_P2;Temp;Humidity;BMP_temperature;BMP_pressure;BME280_temperature;BME280_humidity;BME280_pressure;Samples;Min_cycle;Max_cycle;Signal;HPM_P1;HPM_P2
2024/01/24 00:01:00;;;;;;;5.23;2.40;;;9.20;73.70;;;10.31;56.53;98403.19;5070674;28;20040;-59
2024/01/24 00:03:28;;;;;;;2.90;1.60;;;9.20;73.90;;;10.35;56.29;98422.38;5068476;28;20064;-59
2024/01/24 00:05:56;;;;;;;6.53;1.57;;;9.20;74.00;;;10.32;56.43;98404.88;5070615;28;20052;-59
2024/01/24 00:08:24;;;;;;;8.07;1.57;;;9.20;73.50;;;10.39;56.66;98384.72;5070545;28;20043;-60
2024/01/24 00:10:51;;;;;;;4.50;2.37;;;9.30;73.90;;;10.38;56.59;98395.50;5069516;28;20048;-59
2024/01/24 00:13:19;;;;;;;4.67;1.30;;;9.30;73.60;;;10.39;56.76;98386.50;5070561;28;20036;-59
2024/01/24 00:15:47;;;;;;;3.70;1.17;;;9.30;73.60;;;10.47;56.49;98372.50;5070445;28;20494;-59
2024/01/24 00:18:14;;;;;;;5.87;1.50;;;9.30;73.70;;;10.52;56.59;98376.41;5069633;28;20053;-59
2024/01/24 00:20:42;;;;;;;5.33;1.40;;;9.30;73.90;;;10.51;56.15;98363.25;5070498;28;20044;-59
2024/01/24 00:23:11;;;;;;;9.13;1.77;;;9.30;73.80;;;10.53;56.12;98364.78;5070192;28;20049;-59
2024/01/24 00:25:38;;;;;;;4.43;1.77;;;9.30;73.80;;;10.61;56.26;98359.56;5070076;28;20510;-59
2024/01/24 00:28:06;;;;;;;5.47;1.30;;;9.40;73.90;;;10.61;56.42;98354.25;5069106;28;20534;-59
2024/01/24 00:30:34;;;;;;;2.93;1.90;;;9.40;73.70;;;10.58;56.39;98351.03;5070504;28;20036;-59
2024/01/24 00:33:04;;;;;;;5.90;1.50;;;9.40;74.10;;;10.64;56.26;98340.66;5070249;28;20047;-59
2024/01/24 00:35:32;;;;;;;3.47;1.40;;;9.40;74.20;;;10.63;56.10;98354.09;5069081;28;20043;-59
2024/01/24 00:37:59;;;;;;;3.77;1.20;;;9.40;74.00;;;10.68;56.20;98341.19;5070473;28;20496;-59
2024/01/24 00:40:27;;;;;;;3.43;1.80;;;9.50;74.60;;;10.73;56.07;98352.25;5070356;28;20045;-59
2024/01/24 00:42:54;;;;;;;5.53;1.30;;;9.40;74.30;;;10.79;56.29;98358.81;5069882;28;20048;-59
2024/01/24 00:45:22;;;;;;;3.50;1.43;;;9.50;74.40;;;10.77;56.30;98355.47;5068911;28;20064;-59
2024/01/24 00:47:50;;;;;;;6.70;2.23;;;9.50;74.60;;;10.79;56.36;98370.31;5070332;28;20040;-59
2024/01/24 00:50:17;;;;;;;4.40;1.23;;;9.60;74.40;;;10.83;56.31;98371.69;5070479;28;20053;-59
2024/01/24 00:52:45;;;;;;;2.87;1.23;;;9.60;74.30;;;10.82;56.37;98371.88;5069923;28;20049;-59
2024/01/24 00:55:12;;;;;;;2.40;1.40;;;9.60;74.10;;;10.81;56.37;98376.31;5069943;28;20055;-59
2024/01/24 00:57:40;;;;;;;5.90;2.07;;;9.60;73.90;;;10.84;56.20;98368.06;5072411;28;20055;-59
2024/01/24 01:00:10;;;;;;;3.53;1.50;;;9.60;74.50;;;10.89;56.24;98380.94;5073894;28;20056;-59
2024/01/24 01:02:38;;;;;;;6.27;1.57;;;9.60;74.30;;;10.94;55.98;98372.53;5073625;28;20059;-60
2024/01/24 01:05:06;;;;;;;3.73;1.40;;;9.70;73.90;;;10.93;56.21;98362.84;5073911;28;20040;-60
2024/01/24 01:07:34;;;;;;;4.87;1.40;;;9.70;74.30;;;10.99;55.85;98367.56;5073910;28;20045;-59
2024/01/24 01:10:02;;;;;;;7.17;1.80;;;9.70;74.20;;;11.01;56.23;98361.13;5073690;28;20495;-59
2024/01/24 01:12:30;;;;;;;4.67;1.47;;;9.70;73.80;;;11.07;55.83;98351.72;5073105;28;20055;-59
2024/01/24 01:14:58;;;;;;;2.90;1.27;;;9.70;74.10;;;11.06;55.87;98341.22;5073656;28;20043;-59
2024/01/24 01:17:26;;;;;;;6.87;1.20;;;9.70;73.80;;;11.08;55.99;98334.72;5071999;28;20044;-60
2024/01/24 01:19:53;;;;;;;3.77;1.10;;;9.70;73.70;;;11.11;55.68;98334.44;5072559;28;20385;-59
2024/01/24 01:22:21;;;;;;;2.13;1.17;;;9.70;74.00;;;11.15;55.41;98321.66;5073280;28;20044;-59
2024/01/24 01:24:49;;;;;;;3.30;2.07;;;9.70;73.90;;;11.17;55.48;98327.69;5073219;28;20044;-59
2024/01/24 01:27:17;;;;;;;6.10;1.80;;;9.70;74.00;;;11.19;55.39;98329.22;5073091;28;20049;-60
2024/01/24 01:29:44;;;;;;;3.97;1.30;;;9.80;73.60;;;11.23;55.77;98330.59;5073099;28;20051;-59
2024/01/24 01:32:12;;;;;;;3.23;1.60;;;9.80;73.50;;;11.26;55.52;98329.44;5073000;28;20607;-60
2024/01/24 01:34:40;;;;;;;5.63;1.70;;;9.80;73.70;;;11.28;55.17;98321.31;5072766;28;20041;-59
2024/01/24 01:37:07;;;;;;;2.03;1.33;;;9.80;73.60;;;11.30;55.20;98314.84;5073205;28;20051;-60
2024/01/24 01:39:35;;;;;;;2.60;1.30;;;9.80;73.50;;;11.32;55.53;98309.34;5073199;28;20060;-60
2024/01/24 01:42:03;;;;;;;4.30;1.27;;;9.90;73.30;;;11.33;55.27;98311.03;5072702;28;20044;-59
2024/01/24 01:44:37;;;;;;;2.80;1.57;;;9.80;73.60;;;11.34;55.10;98300.25;5072491;28;20054;-59
2024/01/24 01:47:04;;;;;;;4.47;1.63;;;9.90;73.50;;;11.32;55.80;98309.34;5071687;28;20044;-59
2024/01/24 01:49:32;;;;;;;2.23;1.10;;;9.80;73.70;;;11.32;55.38;98307.53;5071145;28;20049;-59
2024/01/24 01:52:00;;;;;;;3.97;1.60;;;9.80;74.20;;;11.34;55.33;98318.03;5072943;28;20037;-59
2024/01/24 01:54:28;;;;;;;3.77;1.30;;;9.80;74.40;;;11.37;55.52;98323.91;5072402;28;20041;-59
2024/01/24 01:56:55;;;;;;;2.73;2.13;;;9.80;74.60;;;11.37;55.18;98318.56;5072315;28;20047;-59
2024/01/24 01:59:25;;;;;;;4.00;1.43;;;9.80;74.60;;;11.39;55.65;98323.78;5072778;28;20450;-59
2024/01/24 02:01:54;;;;;;;3.70;1.07;;;9.80;74.70;;;11.40;55.34;98317.47;5071480;28;20546;-59
2024/01/24 02:04:23;;;;;;;3.30;1.37;;;9.80;74.50;;;11.39;55.12;98308.59;5072391;28;20048;-59
2024/01/24 02:06:51;;;;;;;2.63;1.03;;;9.80;74.70;;;11.39;55.65;98305.94;5054974;28;20048;-59
2024/01/24 02:09:18;;;;;;;4.20;1.50;;;9.80;74.70;;;11.40;55.47;98317.47;5072258;28;20096;-59
2024/01/24 02:11:46;;;;;;;3.87;2.17;;;9.80;74.80;;;11.40;55.38;98306.78;5071110;28;20051;-60
2024/01/24 02:14:14;;;;;;;4.13;1.57;;;9.80;74.80;;;11.41;55.47;98306.63;5072176;28;20045;-60
2024/01/24 02:16:41;;;;;;;2.97;1.40;;;9.80;75.00;;;11.43;55.35;98295.81;5072422;28;20044;-60
2024/01/24 02:19:10;;;;;;;2.13;1.17;;;9.80;75.00;;;11.42;56.01;98284.31;5071515;28;20045;-58
2024/01/24 02:21:38;;;;;;;4.10;1.20;;;9.90;74.80;;;11.42;55.62;98294.97;5072237;28;20055;-58
2024/01/24 02:24:12;;;;;;;4.97;1.70;;;9.80;74.90;;;11.45;55.66;98293.00;5071808;28;20044;-58
2024/01/24 02:26:39;;;;;;;4.32;2.50;;;9.90;75.80;;;11.47;55.74;98301.69;5072204;28;20504;-59
2024/01/24 02:29:07;;;;;;;3.37;1.17;;;9.90;74.80;;;11.48;55.63;98304.22;5072172;28;20036;-59
2024/01/24 02:31:35;;;;;;;4.17;1.10;;;9.90;74.40;;;11.49;55.26;98283.72;5071907;28;20049;-59
2024/01/24 02:34:02;;;;;;;6.37;2.03;;;10.00;74.30;;;11.50;55.62;98272.06;5071796;28;20040;-59
2024/01/24 02:36:30;;;;;;;3.00;1.23;;;9.90;74.60;;;11.48;55.44;98277.53;5071995;28;20044;-60
2024/01/24 02:38:58;;;;;;;2.07;1.20;;;9.90;74.90;;;11.46;55.15;98263.53;5070157;28;20059;-60
2024/01/24 02:41:25;;;;;;;2.90;1.13;;;9.90;74.60;;;11.47;55.55;98267.84;5072273;28;20052;-60
2024/01/24 02:43:53;;;;;;;4.93;1.70;;;9.90;74.80;;;11.48;55.45;98266.06;5071869;28;20059;-60
2024/01/24 02:46:20;;;;;;;6.73;1.53;;;9.90;74.90;;;11.48;55.48;98263.38;5071902;28;20049;-60
2024/01/24 02:48:48;;;;;;;3.30;1.10;;;9.80;75.10;;;11.47;55.22;98275.03;5071648;28;20051;-60
2024/01/24 02:51:26;;;;;;;6.70;1.23;;;9.80;74.90;;;11.46;55.22;98260.00;5071746;28;20091;-60
2024/01/24 02:53:54;;;;;;;2.37;1.20;;;9.80;75.00;;;11.46;55.58;98265.34;5071383;28;20044;-60
2024/01/24 02:56:21;;;;;;;4.63;1.10;;;9.80;75.20;;;11.45;55.41;98263.69;5070421;28;20048;-60
2024/01/24 02:58:49;;;;;;;1.53;1.00;;;9.80;75.20;;;11.46;55.72;98260.88;5071431;28;20531;-60
2024/01/24 03:01:17;;;;;;;2.93;1.40;;;9.80;75.20;;;11.43;55.61;98256.66;5071287;28;20052;-60
2024/01/24 03:03:44;;;;;;;3.23;1.20;;;9.70;75.40;;;11.42;55.36;98263.00;5071027;28;20416;-60
2024/01/24 03:06:13;;;;;;;6.50;1.13;;;9.70;75.40;;;11.42;55.61;98271.00;5071598;28;20048;-60
2024/01/24 03:08:58;;;;;;;6.87;1.97;;;9.70;75.40;;;11.42;55.51;98255.00;5069860;28;20048;-60
2024/01/24 03:11:26;;;;;;;3.50;1.20;;;9.80;75.00;;;11.43;55.49;98269.97;5071553;28;20045;-60
2024/01/24 03:13:54;;;;;;;3.87;1.83;;;9.80;75.30;;;11.44;55.52;98265.50;5071340;28;20048;-60
2024/01/24 03:16:21;;;;;;;6.93;2.13;;;9.80;75.30;;;11.43;55.66;98267.31;5071135;28;20056;-60
2024/01/24 03:18:51;;;;;;;3.47;1.23;;;9.70;75.30;;;11.43;55.29;98269.97;5068777;28;20078;-60
2024/01/24 03:21:19;;;;;;;1.67;1.10;;;9.70;75.30;;;11.44;55.56;98257.50;5070123;28;20040;-60
2024/01/24 03:23:46;;;;;;;2.50;1.10;;;9.80;75.10;;;11.42;55.46;98263.00;5070786;28;20048;-60
2024/01/24 03:26:15;;;;;;;3.23;1.00;;;9.70;75.20;;;11.43;55.30;98267.31;5052777;28;20044;-60
2024/01/24 03:28:43;;;;;;;2.90;1.17;;;9.80;75.20;;;11.45;55.24;98263.69;5086555;28;20049;-59
2024/01/24 03:31:11;;;;;;;4.23;1.00;;;9.70;75.20;;;11.47;55.28;98267.84;5071049;28;20043;-59
2024/01/24 03:33:38;;;;;;;1.17;0.97;;;9.80;75.10;;;11.48;55.76;98274.88;5070817;28;20044;-59
2024/01/24 03:36:06;;;;;;;4.63;2.60;;;9.80;75.30;;;11.50;55.59;98269.41;5070708;28;20040;-59
2024/01/24 03:38:34;;;;;;;1.20;0.90;;;9.80;75.20;;;11.50;55.51;98261.41;5070936;28;20052;-59
2024/01/24 03:41:02;;;;;;;4.30;1.40;;;9.80;75.40;;;11.52;55.54;98273.59;5071084;28;20055;-59
2024/01/24 03:43:30;;;;;;;7.73;1.63;;;9.80;75.30;;;11.52;55.43;98278.91;5070599;28;20040;-59
2024/01/24 03:45:57;;;;;;;3.73;0.83;;;9.80;75.10;;;11.54;55.52;98268.09;5070830;28;20036;-59
2024/01/24 03:48:25;;;;;;;2.63;1.00;;;9.80;74.90;;;11.50;55.48;98259.56;5070949;28;20052;-59
2024/01/24 03:50:53;;;;;;;3.43;1.00;;;9.80;75.10;;;11.50;55.48;98250.75;5070690;28;20052;-59
2024/01/24 03:53:20;;;;;;;4.00;1.53;;;9.80;75.10;;;11.52;55.51;98244.25;5070467;28;20388;-59
2024/01/24 03:55:48;;;;;;;2.73;1.07;;;9.80;75.40;;;11.53;55.43;98250.41;5070850;28;20053;-59
2024/01/24 03:58:15;;;;;;;4.57;1.17;;;9.80;75.30;;;11.51;55.57;98253.22;5071017;28;20068;-59
2024/01/24 04:00:43;;;;;;;5.23;1.23;;;9.80;75.60;;;11.51;55.61;98255.91;5070670;28;20075;-59
2024/01/24 04:03:11;;;;;;;1.20;1.00;;;9.80;75.70;;;11.53;55.70;98256.56;5070514;28;20041;-59
2024/01/24 04:05:38;;;;;;;2.43;0.97;;;9.80;75.90;;;11.53;55.94;98243.25;5071752;28;20045;-59
2024/01/24 04:08:06;;;;;;;7.37;1.40;;;9.90;76.80;;;11.55;56.19;98243.09;5069708;28;20041;-59
2024/01/24 04:10:34;;;;;;;1.73;1.20;;;9.90;77.00;;;11.55;56.06;98248.44;5070279;28;20040;-59
2024/01/24 04:13:01;;;;;;;4.93;1.37;;;10.00;77.40;;;11.54;56.66;98254.78;5070125;28;20415;-59
2024/01/24 04:15:29;;;;;;;6.10;1.37;;;10.10;77.70;;;11.58;56.60;98262.31;5070600;28;20405;-59
2024/01/24 04:17:58;;;;;;;2.93;1.27;;;10.10;77.70;;;11.61;56.91;98263.81;5066189;28;20056;-58
2024/01/24 04:20:25;;;;;;;2.73;1.40;;;10.20;77.70;;;11.63;56.85;98281.38;5069507;28;20055;-59
2024/01/24 04:22:53;;;;;;;1.70;1.10;;;10.20;77.70;;;11.67;56.86;98281.91;5070215;28;20415;-59
2024/01/24 04:25:21;;;;;;;2.27;1.10;;;10.30;77.90;;;11.68;57.38;98274.72;5069403;28;20400;-59
2024/01/24 04:27:49;;;;;;;6.03;1.40;;;10.30;78.30;;;11.69;57.92;98277.25;5070717;28;20045;-59
2024/01/24 04:30:16;;;;;;;4.37;1.60;;;10.40;79.90;;;11.73;58.54;98275.09;5070552;28;20040;-59
2024/01/24 04:32:44;;;;;;;5.07;1.30;;;10.50;80.90;;;11.77;58.50;98274.66;5073163;28;20044;-59
2024/01/24 04:35:12;;;;;;;5.27;1.40;;;10.50;80.60;;;11.82;58.94;98268.84;5065937;28;20048;-59
2024/01/24 04:37:39;;;;;;;2.90;1.70;;;10.60;81.10;;;11.72;60.43;98270.75;5074345;28;20044;-61
2024/01/24 04:40:08;;;;;;;3.70;1.17;;;10.80;82.20;;;11.88;60.19;98278.91;5074113;28;20404;-59
2024/01/24 04:42:35;;;;;;;2.63;1.50;;;10.90;82.00;;;11.97;59.64;98275.34;5073766;28;20052;-60
2024/01/24 04:45:04;;;;;;;1.63;1.40;;;10.90;81.90;;;12.04;59.55;98267.56;5089642;28;20048;-60
2024/01/24 04:47:31;;;;;;;4.40;1.40;;;11.00;82.00;;;11.97;61.02;98286.00;5074131;28;20071;-59
2024/01/24 04:49:59;;;;;;;3.60;1.30;;;11.00;83.60;;;12.07;60.99;98271.75;5073334;28;20054;-59
2024/01/24 04:52:27;;;;;;;2.50;1.30;;;11.10;83.70;;;12.13;60.91;98255.94;5073715;28;20389;-60
2024/01/24 04:54:55;;;;;;;1.47;1.10;;;11.20;83.50;;;12.20;61.25;98246.31;5073772;28;20203;-59
2024/01/24 04:57:22;;;;;;;5.10;1.20;;;11.40;83.20;;;12.28;61.24;98266.88;5073941;28;20036;-59
2024/01/24 04:59:50;;;;;;;5.03;1.45;;;11.40;83.20;;;12.27;61.64;98277.72;5073466;28;20052;-59
2024/01/24 05:02:23;;;;;;;5.68;2.70;;;11.60;83.20;;;12.33;61.75;98274.41;5073513;28;20059;-60
2024/01/24 05:04:51;;;;;;;5.53;1.47;;;11.60;82.80;;;12.25;62.71;98285.88;5073433;28;20520;-59
2024/01/24 05:07:19;;;;;;;2.88;1.50;;;11.70;83.20;;;12.33;62.42;98259.25;5072614;28;20053;-59
2024/01/24 05:09:46;;;;;;;2.07;1.10;;;11.80;82.30;;;12.46;61.62;98253.47;5072606;28;20115;-59
2024/01/24 05:12:14;;;;;;;6.55;1.38;;;11.80;82.40;;;12.45;61.83;98249.16;5073157;28;20412;-59
2024/01/24 05:14:42;;;;;;;3.30;1.25;;;11.70;82.70;;;12.51;61.76;98237.81;5073528;28;20044;-59
2024/01/24 05:17:10;;;;;;;2.58;1.17;;;11.80;82.50;;;12.55;61.56;98254.38;5073488;28;20074;-59
2024/01/24 05:19:38;;;;;;;1.40;0.90;;;11.80;82.30;;;12.57;61.80;98284.44;5073610;28;20073;-59
2024/01/24 05:22:06;;;;;;;1.85;1.00;;;11.90;82.20;;;12.66;61.47;98263.94;5071849;28;20051;-59
2024/01/24 05:24:33;;;;;;;2.47;1.40;;;11.90;82.10;;;12.72;61.38;98260.63;5072164;28;20416;-59
2024/01/24 05:27:01;;;;;;;2.70;1.50;;;12.00;81.80;;;12.70;61.59;98243.94;5073328;28;20523;-60
2024/01/24 05:29:29;;;;;;;1.02;0.82;;;12.00;81.40;;;12.78;61.20;98262.66;5073275;28;20119;-59
2024/01/24 05:31:56;;;;;;;1.67;0.90;;;12.00;81.20;;;12.75;61.40;98229.06;5073016;28;20040;-59
2024/01/24 05:34:24;;;;;;;1.20;1.13;;;12.00;81.30;;;12.74;61.29;98242.63;5073048;28;20479;-59
2024/01/24 05:36:53;;;;;;;2.97;0.88;;;12.00;81.30;;;12.88;60.99;98257.19;5073105;28;20044;-59
2024/01/24 05:39:21;;;;;;;3.00;0.77;;;12.10;81.00;;;12.85;61.09;98233.47;5073127;28;20518;-59
2024/01/24 05:41:49;;;;;;;3.20;1.00;;;12.10;80.90;;;12.84;61.00;98251.34;5071503;28;20044;-59
2024/01/24 05:44:16;;;;;;;1.73;1.08;;;12.10;80.70;;;12.89;60.90;98235.66;5072443;28;20056;-59
2024/01/24 05:46:44;;;;;;;1.48;0.80;;;12.10;80.70;;;12.95;60.74;98235.00;5072852;28;20040;-59
2024/01/24 05:49:11;;;;;;;2.53;1.00;;;12.10;80.60;;;12.97;60.62;98256.25;5072961;28;20419;-59
2024/01/24 05:51:40;;;;;;;2.35;0.85;;;12.10;80.40;;;13.02;60.56;98226.34;5072857;28;20158;-59
2024/01/24 05:54:08;;;;;;;1.65;1.33;;;12.20;79.90;;;12.96;60.63;98236.66;5072356;28;20044;-59
2024/01/24 05:56:38;;;;;;;3.63;0.90;;;12.20;79.80;;;12.97;60.56;98202.78;5072664;28;20484;-59
2024/01/24 05:59:06;;;;;;;1.23;0.70;;;12.20;79.70;;;13.06;60.36;98219.66;5072671;28;20032;-59
2024/01/24 06:01:33;;;;;;;2.63;0.80;;;12.20;79.60;;;13.12;60.15;98206.47;5072416;28;20052;-59
2024/01/24 06:04:01;;;;;;;0.80;0.80;;;12.20;79.70;;;13.16;60.01;98218.53;5072333;28;20052;-58
2024/01/24 06:06:29;;;;;;;1.45;0.75;;;12.30;79.70;;;13.15;60.10;98242.75;5088049;28;20044;-58
2024/01/24 06:08:57;;;;;;;3.63;1.05;;;12.30;79.50;;;13.12;60.16;98230.53;5072083;28;20040;-59
2024/01/24 06:11:24;;;;;;;3.42;1.00;;;12.30;79.60;;;13.15;60.18;98235.56;5072510;28;20037;-59
2024/01/24 06:13:52;;;;;;;4.22;1.33;;;12.30;79.20;;;13.22;60.00;98246.44;5072089;28;20040;-59
2024/01/24 06:16:20;;;;;;;1.55;1.02;;;12.30;79.20;;;13.25;59.80;98269.34;5072181;28;20418;-58
2024/01/24 06:18:47;;;;;;;1.75;0.90;;;12.40;79.20;;;13.25;59.87;98253.31;5072441;28;20047;-59
2024/01/24 06:21:15;;;;;;;0.75;0.70;;;12.40;79.00;;;13.29;59.72;98247.47;5072185;28;20045;-59
2024/01/24 06:23:43;;;;;;;0.60;0.60;;;12.40;78.90;;;13.35;59.42;98246.84;5070857;28;20052;-59
2024/01/24 06:26:10;;;;;;;1.45;0.88;;;12.40;78.40;;;13.35;59.62;98241.47;5072097;28;20048;-60
2024/01/24 06:28:38;;;;;;;0.50;0.50;;;12.40;78.70;;;13.41;59.60;98247.19;5072256;28;20048;-59
2024/01/24 06:31:06;;;;;;;0.85;0.60;;;12.40;78.40;;;13.44;59.33;98239.69;5071993;28;20036;-60
2024/01/24 06:33:33;;;;;;;1.20;0.70;;;12.50;78.20;;;13.39;59.37;98242.00;5071670;28;20039;-59
2024/01/24 06:36:01;;;;;;;0.55;0.55;;;12.50;78.20;;;13.45;59.18;98251.19;5071411;28;20040;-60
2024/01/24 06:38:28;;;;;;;2.72;1.10;;;12.50;78.10;;;13.51;59.17;98248.72;5071916;28;20033;-60
2024/01/24 06:40:56;;;;;;;1.25;0.88;;;12.60;77.80;;;13.57;59.02;98252.53;5070688;28;20059;-59
2024/01/24 06:43:24;;;;;;;1.45;1.05;;;12.50;78.10;;;13.56;59.06;98257.06;5063384;28;20051;-59
2024/01/24 06:45:52;;;;;;;2.72;1.90;;;12.60;78.00;;;13.63;58.79;98245.69;5071434;28;20416;-59
2024/01/24 06:48:19;;;;;;;3.20;0.85;;;12.60;78.00;;;13.64;58.71;98231.34;5071166;28;20052;-60
2024/01/24 06:50:47;;;;;;;3.33;1.05;;;12.50;78.10;;;13.62;58.95;98236.84;5071559;28;20044;-58
2024/01/24 06:53:15;;;;;;;2.05;1.45;;;12.60;78.50;;;13.68;58.95;98232.66;5071116;28;20067;-58
2024/01/24 06:55:44;;;;;;;1.85;1.08;;;12.60;78.60;;;13.64;58.94;98247.38;5070905;28;20488;-58
2024/01/24 06:58:11;;;;;;;0.55;0.55;;;12.60;78.60;;;13.59;59.02;98238.03;5071219;28;20044;-58
2024/01/24 07:00:39;;;;;;;1.33;0.77;;;12.60;78.80;;;13.62;58.90;98231.50;5071318;28;20047;-58
2024/01/24 07:03:07;;;;;;;0.70;0.70;;;12.50;78.70;;;13.63;59.00;98229.66;5070937;28;20045;-58
2024/01/24 07:05:35;;;;;;;0.80;0.80;;;12.60;78.80;;;13.68;58.93;98230.00;5070973;28;20500;-58
2024/01/24 07:08:02;;;;;;;0.45;0.45;;;12.60;78.80;;;13.64;59.01;98221.47;5071033;28;20049;-59
2024/01/24 07:10:30;;;;;;;0.50;0.50;;;12.60;78.70;;;13.61;59.24;98224.50;5069610;28;20397;-58
2024/01/24 07:12:58;;;;;;;1.42;0.80;;;12.60;79.00;;;13.65;59.14;98225.81;5071033;28;20041;-58
2024/01/24 07:15:25;;;;;;;0.40;0.40;;;12.60;79.00;;;13.63;59.23;98211.78;5071022;28;20036;-59
2024/01/24 07:17:54;;;;;;;0.73;0.60;;;12.60;79.30;;;13.65;59.18;98228.50;5071128;28;20044;-58
2024/01/24 07:20:22;;;;;;;0.93;0.90;;;12.60;79.30;;;13.65;59.21;98215.13;5065585;28;20048;-59
2024/01/24 07:22:49;;;;;;;0.77;0.70;;;12.60;79.10;;;13.69;59.20;98234.34;5070933;28;20044;-59
2024/01/24 07:25:20;;;;;;;1.05;0.80;;;12.60;79.10;;;13.73;58.95;98233.03;5069789;28;20045;-59
2024/01/24 07:27:48;;;;;;;0.95;0.85;;;12.60;79.20;;;13.68;59.24;98254.06;5071148;28;20049;-59
2024/01/24 07:30:16;;;;;;;1.33;0.73;;;12.60;79.30;;;13.67;59.33;98242.53;5071007;28;20052;-59
2024/01/24 07:32:44;;;;;;;0.85;0.85;;;12.60;79.40;;;13.71;59.38;98227.81;5068622;28;20053;-59
2024/01/24 07:35:12;;;;;;;0.90;0.50;;;12.60;79.60;;;13.69;59.38;98237.03;5070640;28;20504;-59
2024/01/24 07:37:40;;;;;;;1.08;0.80;;;12.60;80.00;;;13.70;59.52;98236.84;5069842;28;20040;-58
2024/01/24 07:40:08;;;;;;;0.70;0.70;;;12.60;80.20;;;13.65;59.66;98241.00;5070919;28;20040;-59
2024/01/24 07:42:36;;;;;;;0.73;0.70;;;12.60;80.40;;;13.55;60.12;98249.19;5070379;28;20044;-60
2024/01/24 07:45:04;;;;;;;0.70;0.70;;;12.60;80.90;;;13.63;59.81;98246.56;5070913;28;20048;-59
2024/01/24 07:47:32;;;;;;;1.98;0.90;;;12.60;80.60;;;13.66;59.76;98258.75;5078273;28;20519;-59
2024/01/24 07:50:03;;;;;;;0.73;0.73;;;12.60;80.70;;;13.65;59.94;98252.56;5070798;28;20599;-59
2024/01/24 07:52:31;;;;;;;1.00;0.90;;;12.50;80.80;;;13.66;59.79;98234.69;5059810;28;20049;-59
2024/01/24 07:55:09;;;;;;;1.02;0.80;;;12.60;80.90;;;13.65;59.94;98257.06;5061571;28;20055;-59
2024/01/24 07:57:37;;;;;;;1.23;1.13;;;12.60;81.00;;;13.61;60.15;98253.91;5068161;28;20045;-59
2024/01/24 08:00:06;;;;;;;0.95;0.73;;;12.60;81.10;;;13.63;60.20;98272.44;5073322;28;20040;-60
2024/01/24 08:02:34;;;;;;;1.02;0.75;;;12.60;81.20;;;13.55;60.46;98268.78;5070824;28;20045;-59
2024/01/24 08:05:02;;;;;;;0.65;0.65;;;12.60;81.30;;;13.61;60.44;98255.72;5070572;28;20052;-61
2024/01/24 08:07:33;;;;;;;0.75;0.60;;;12.60;81.30;;;13.62;60.26;98266.28;5074709;28;20331;-61
2024/01/24 08:10:00;;;;;;;0.45;0.45;;;12.60;81.50;;;13.66;60.49;98286.34;5074771;28;20051;-61
2024/01/24 08:12:28;;;;;;;1.02;0.93;;;12.70;81.20;;;13.72;60.42;98282.16;5074244;28;20036;-62
2024/01/24 08:14:56;;;;;;;0.68;0.68;;;12.70;81.30;;;13.77;60.26;98301.25;5073327;28;20051;-61
2024/01/24 08:17:25;;;;;;;0.70;0.50;;;12.80;81.20;;;13.78;59.85;98278.81;5074544;28;20043;-61
2024/01/24 08:19:52;;;;;;;1.20;0.50;;;12.80;81.00;;;13.79;60.18;98267.13;5073166;28;20500;-61
2024/01/24 08:22:20;;;;;;;1.27;1.00;;;12.80;81.00;;;13.76;60.38;98289.72;5072324;28;20049;-60
2024/01/24 08:24:48;;;;;;;1.30;1.20;;;12.70;81.10;;;13.73;60.44;98292.72;5073559;28;20416;-60
2024/01/24 08:27:17;;;;;;;1.02;0.90;;;12.70;81.30;;;13.72;60.73;98304.41;5074826;28;20291;-60
2024/01/24 08:29:45;;;;;;;0.70;0.70;;;12.70;81.50;;;13.78;60.47;98260.94;5074275;28;20487;-61
2024/01/24 08:32:13;;;;;;;1.27;1.17;;;12.70;81.20;;;13.77;60.49;98275.31;5073823;28;20420;-61
2024/01/24 08:34:41;;;;;;;1.63;1.40;;;12.70;81.30;;;13.83;60.48;98275.66;5073618;28;20436;-60
2024/01/24 08:37:09;;;;;;;1.83;1.10;;;12.80;81.40;;;13.87;60.51;98282.34;5074159;28;20048;-60
2024/01/24 08:39:38;;;;;;;2.72;2.00;;;12.80;81.40;;;13.85;60.57;98295.06;5074162;28;20452;-60
2024/01/24 08:42:06;;;;;;;1.38;1.08;;;12.90;81.70;;;13.85;60.80;98284.38;5074068;28;20095;-60
2024/01/24 08:44:34;;;;;;;2.60;2.33;;;12.90;82.10;;;13.79;61.15;98286.69;5073539;28;20051;-61
2024/01/24 08:47:02;;;;;;;0.60;0.60;;;12.80;82.30;;;13.88;60.98;98273.31;5073932;28;20049;-61
2024/01/24 08:49:29;;;;;;;0.60;0.60;;;12.90;82.20;;;13.95;60.82;98267.13;5073945;28;20064;-61
2024/01/24 08:51:57;;;;;;;1.05;0.60;;;12.90;82.20;;;13.99;60.68;98259.59;5073948;28;20059;-61
2024/01/24 08:54:25;;;;;;;1.65;1.10;;;12.90;82.40;;;14.01;60.91;98281.69;5073371;28;20419;-60
2024/01/24 08:56:53;;;;;;;0.80;0.80;;;13.00;82.50;;;14.00;61.03;98277.34;5073736;28;20051;-61
2024/01/24 08:59:21;;;;;;;0.70;0.70;;;13.00;82.50;;;13.99;61.05;98278.34;5065255;28;20404;-61
2024/01/24 09:01:49;;;;;;;1.35;1.00;;;13.00;82.70;;;14.00;61.13;98288.06;5064881;28;20052;-61
2024/01/24 09:04:17;;;;;;;1.33;1.23;;;13.00;82.80;;;14.02;61.20;98291.41;5067214;28;20044;-60
2024/01/24 09:06:45;;;;;;;1.08;0.75;;;13.00;82.70;;;14.11;60.90;98297.56;5068314;28;20049;-60
2024/01/24 09:09:13;;;;;;;0.25;0.25;;;13.00;82.90;;;14.11;60.94;98310.97;5067505;28;20050;-60
2024/01/24 09:11:42;;;;;;;1.67;0.60;;;13.00;83.00;;;14.12;60.93;98301.94;5067407;28;20087;-61
2024/01/24 09:14:24;;;;;;;0.35;0.35;;;13.00;82.90;;;14.12;60.97;98316.16;5063863;28;20040;-60
2024/01/24 09:16:52;;;;;;;0.50;0.40;;;13.10;83.00;;;14.15;61.02;98306.94;5072662;28;20036;-60
2024/01/24 09:19:21;;;;;;;1.08;0.70;;;13.10;82.90;;;14.11;61.17;98306.47;5073688;28;20530;-60
2024/01/24 09:21:50;;;;;;;0.95;0.95;;;13.10;83.10;;;14.07;61.50;98313.13;5079572;28;20048;-60
2024/01/24 09:24:18;;;;;;;0.60;0.60;;;13.10;83.20;;;14.08;61.58;98290.72;5071985;28;20491;-60
2024/01/24 09:26:46;;;;;;;0.50;0.50;;;13.10;83.50;;;14.18;61.42;98301.25;5073264;28;20041;-60
2024/01/24 09:29:13;;;;;;;0.52;0.50;;;13.10;83.30;;;14.24;61.13;98294.41;5071394;28;20053;-61
2024/01/24 09:31:45;;;;;;;1.65;1.10;;;13.10;83.30;;;14.27;61.16;98302.94;5054859;28;20067;-61
2024/01/24 09:34:12;;;;;;;1.00;0.90;;;13.20;83.20;;;14.25;61.49;98306.78;5088162;28;20055;-60
2024/01/24 09:36:41;;;;;;;0.52;0.52;;;13.20;83.80;;;14.26;61.57;98287.84;5072874;28;20495;-60
2024/01/24 09:39:09;;;;;;;0.60;0.60;;;13.20;84.30;;;14.27;61.47;98278.84;5073149;28;20048;-58
2024/01/24 09:41:43;;;;;;;1.13;0.80;;;13.20;84.40;;;14.25;61.80;98288.88;5071773;28;20496;-56
2024/01/24 09:44:14;;;;;;;1.42;1.27;;;13.20;84.70;;;14.26;61.74;98281.69;5072476;28;20519;-56
2024/01/24 09:46:42;;;;;;;2.17;1.98;;;13.20;84.70;;;14.21;61.80;98270.63;5072635;28;20033;-57
2024/01/24 09:49:10;;;;;;;3.13;2.83;;;13.10;84.90;;;14.21;62.02;98294.72;5088099;28;20063;-55
2024/01/24 09:51:41;;;;;;;2.10;1.80;;;13.20;85.10;;;14.18;62.12;98274.47;5071546;28;20044;-57
2024/01/24 09:54:09;;;;;;;1.40;1.30;;;13.10;85.40;;;14.19;62.03;98281.53;5071143;28;20048;-58
2024/01/24 09:56:41;;;;;;;2.25;2.00;;;13.10;85.20;;;14.26;62.12;98290.53;5071448;28;20052;-58
2024/01/24 09:59:08;;;;;;;1.73;1.63;;;13.20;85.00;;;14.22;62.13;98302.59;5072429;28;20140;-58
2024/01/24 10:01:39;;;;;;;1.10;1.02;;;13.20;84.80;;;14.18;62.21;98299.41;5071235;28;20040;-59
2024/01/24 10:04:08;;;;;;;1.27;1.17;;;13.20;84.10;;;14.24;61.94;98294.41;5072144;28;20051;-59
2024/01/24 10:06:40;;;;;;;0.98;0.90;;;13.20;84.00;;;14.19;61.94;98289.56;5070704;28;20056;-58
2024/01/24 10:09:08;;;;;;;0.93;0.70;;;13.30;83.70;;;14.06;62.30;98303.44;5072847;28;20045;-58
2024/01/24 10:11:36;;;;;;;1.20;1.10;;;13.30;83.70;;;14.08;62.30;98314.00;5072079;28;20291;-57
2024/01/24 10:14:04;;;;;;;0.73;0.70;;;13.20;83.30;;;14.21;62.09;98306.28;5071679;28;20040;-56
2024/01/24 10:16:31;;;;;;;0.60;0.60;;;13.30;83.50;;;14.26;61.83;98301.25;5072225;28;20055;-58
2024/01/24 10:18:59;;;;;;;0.90;0.90;;;13.40;83.10;;;14.35;61.87;98286.03;5072314;28;20041;-57
2024/01/24 10:21:27;;;;;;;0.88;0.88;;;13.40;82.90;;;14.10;61.73;98328.88;5066980;28;20047;-57
2024/01/24 10:23:55;;;;;;;1.25;0.77;;;13.30;81.10;;;14.14;61.14;98310.63;5071857;28;20045;-57
2024/01/24 10:26:25;;;;;;;0.30;0.30;;;13.30;80.50;;;14.05;60.82;98287.53;5070525;28;20059;-57